sensor_id;sensor_type;location;lat;lon;timestamp;P1;durP1;ratioP1;P2;durP2;ratioP2
239;SDS011;104;53.590;10.004;2024-01-07T00:02:15;23.10;;;12.27;;
239;SDS011;104;53.590;10.004;2024-01-07T00:04:42;22.30;;;12.40;;
239;SDS011;104;53.590;10.004;2024-01-07T00:07:09;25.63;;;13.13;;
239;SDS011;104;53.590;10.004;2024-01-07T00:09:36;24.57;;;12.57;;
239;SDS011;104;53.590;10.004;2024-01-07T00:12:04;27.57;;;13.50;;
239;SDS011;104;53.590;10.004;2024-01-07T00:14:31;25.57;;;13.57;;
239;SDS011;104;53.590;10.004;2024-01-07T00:16:58;21.97;;;12.20;;
239;SDS011;104;53.590;10.004;2024-01-07T00:19:27;25.57;;;12.90;;
239;SDS011;104;53.590;10.004;2024-01-07T00:21:56;26.37;;;12.80;;
239;SDS011;104;53.590;10.004;2024-01-07T00:24:23;31.40;;;13.10;;
239;SDS011;104;53.590;10.004;2024-01-07T00:26:53;24.47;;;13.20;;
239;SDS011;104;53.590;10.004;2024-01-07T00:29:20;25.13;;;12.97;;
239;SDS011;104;53.590;10.004;2024-01-07T00:31:47;26.03;;;13.73;;
239;SDS011;104;53.590;10.004;2024-01-07T00:34:14;25.30;;;12.90;;
239;SDS011;104;53.590;10.004;2024-01-07T00:36:43;26.60;;;13.43;;
239;SDS011;104;53.590;10.004;2024-01-07T00:39:11;23.33;;;11.80;;
239;SDS011;104;53.590;10.004;2024-01-07T00:41:38;22.40;;;12.70;;
239;SDS011;104;53.590;10.004;2024-01-07T00:44:05;22.23;;;13.20;;
239;SDS011;104;53.590;10.004;2024-01-07T00:46:32;23.60;;;12.70;;
239;SDS011;104;53.590;10.004;2024-01-07T00:48:59;23.37;;;12.63;;
239;SDS011;104;53.590;10.004;2024-01-07T00:51:27;27.07;;;13.80;;
239;SDS011;104;53.590;10.004;2024-01-07T00:53:55;36.13;;;13.80;;
239;SDS011;104;53.590;10.004;2024-01-07T00:56:25;21.17;;;11.67;;
239;SDS011;104;53.590;10.004;2024-01-07T00:58:52;24.37;;;13.60;;
239;SDS011;104;53.590;10.004;2024-01-07T01:01:19;26.67;;;13.87;;
239;SDS011;104;53.590;10.004;2024-01-07T01:03:46;26.50;;;13.93;;
239;SDS011;104;53.590;10.004;2024-01-07T01:06:14;24.43;;;13.30;;
239;SDS011;104;53.590;10.004;2024-01-07T01:08:41;24.87;;;14.27;;
239;SDS011;104;53.590;10.004;2024-01-07T01:11:10;26.83;;;14.67;;
239;SDS011;104;53.590;10.004;2024-01-07T01:13:37;31.07;;;14.13;;
239;SDS011;104;53.590;10.004;2024-01-07T01:16:04;26.03;;;13.67;;
239;SDS011;104;53.590;10.004;2024-01-07T01:18:31;30.80;;;14.43;;
239;SDS011;104;53.590;10.004;2024-01-07T01:20:59;27.40;;;14.80;;
239;SDS011;104;53.590;10.004;2024-01-07T01:23:26;27.63;;;14.33;;
239;SDS011;104;53.590;10.004;2024-01-07T01:25:53;32.07;;;14.50;;
239;SDS011;104;53.590;10.004;2024-01-07T01:28:21;25.10;;;14.20;;
239;SDS011;104;53.590;10.004;2024-01-07T01:30:49;27.87;;;14.87;;
239;SDS011;104;53.590;10.004;2024-01-07T01:33:16;26.57;;;14.23;;
239;SDS011;104;53.590;10.004;2024-01-07T01:35:43;28.27;;;14.40;;
239;SDS011;104;53.590;10.004;2024-01-07T01:38:10;28.30;;;14.40;;
239;SDS011;104;53.590;10.004;2024-01-07T01:40:37;28.00;;;15.00;;
239;SDS011;104;53.590;10.004;2024-01-07T01:43:05;26.83;;;14.90;;
239;SDS011;104;53.590;10.004;2024-01-07T01:45:33;33.33;;;15.00;;
239;SDS011;104;53.590;10.004;2024-01-07T01:48:01;28.73;;;14.33;;
239;SDS011;104;53.590;10.004;2024-01-07T01:50:28;25.87;;;14.60;;
239;SDS011;104;53.590;10.004;2024-01-07T01:52:55;27.33;;;14.63;;
239;SDS011;104;53.590;10.004;2024-01-07T01:55:22;30.17;;;15.13;;
239;SDS011;104;53.590;10.004;2024-01-07T01:57:49;27.80;;;15.10;;
239;SDS011;104;53.590;10.004;2024-01-07T02:00:18;29.97;;;14.33;;
239;SDS011;104;53.590;10.004;2024-01-07T02:02:46;32.33;;;14.63;;
239;SDS011;104;53.590;10.004;2024-01-07T02:05:13;37.03;;;15.40;;
239;SDS011;104;53.590;10.004;2024-01-07T02:07:41;30.10;;;15.57;;
239;SDS011;104;53.590;10.004;2024-01-07T02:10:08;28.47;;;15.10;;
239;SDS011;104;53.590;10.004;2024-01-07T02:12:35;30.77;;;15.20;;
239;SDS011;104;53.590;10.004;2024-01-07T02:15:03;31.87;;;15.53;;
239;SDS011;104;53.590;10.004;2024-01-07T02:17:30;28.63;;;15.17;;
239;SDS011;104;53.590;10.004;2024-01-07T02:19:59;28.10;;;14.90;;
239;SDS011;104;53.590;10.004;2024-01-07T02:22:25;33.00;;;15.40;;
239;SDS011;104;53.590;10.004;2024-01-07T02:24:54;30.33;;;15.27;;
239;SDS011;104;53.590;10.004;2024-01-07T02:27:21;32.63;;;15.47;;
239;SDS011;104;53.590;10.004;2024-01-07T02:29:48;31.43;;;15.27;;
239;SDS011;104;53.590;10.004;2024-01-07T02:32:16;29.47;;;15.07;;
239;SDS011;104;53.590;10.004;2024-01-07T02:34:43;28.37;;;15.57;;
239;SDS011;104;53.590;10.004;2024-01-07T02:37:12;27.83;;;15.00;;
239;SDS011;104;53.590;10.004;2024-01-07T02:39:39;29.23;;;14.97;;
239;SDS011;104;53.590;10.004;2024-01-07T02:42:08;31.53;;;16.37;;
239;SDS011;104;53.590;10.004;2024-01-07T02:44:35;30.33;;;15.20;;
239;SDS011;104;53.590;10.004;2024-01-07T02:47:02;33.53;;;16.10;;
239;SDS011;104;53.590;10.004;2024-01-07T02:49:29;37.50;;;16.07;;
239;SDS011;104;53.590;10.004;2024-01-07T02:51:56;31.83;;;15.90;;
239;SDS011;104;53.590;10.004;2024-01-07T02:54:23;31.40;;;16.07;;
239;SDS011;104;53.590;10.004;2024-01-07T02:56:51;30.87;;;16.43;;
239;SDS011;104;53.590;10.004;2024-01-07T02:59:20;29.70;;;14.90;;
239;SDS011;104;53.590;10.004;2024-01-07T03:01:47;35.57;;;17.27;;
239;SDS011;104;53.590;10.004;2024-01-07T03:04:15;30.73;;;15.73;;
239;SDS011;104;53.590;10.004;2024-01-07T03:06:42;32.33;;;16.90;;
239;SDS011;104;53.590;10.004;2024-01-07T03:09:10;28.77;;;15.57;;
239;SDS011;104;53.590;10.004;2024-01-07T03:11:38;33.03;;;16.83;;
239;SDS011;104;53.590;10.004;2024-01-07T03:14:06;34.80;;;16.83;;
239;SDS011;104;53.590;10.004;2024-01-07T03:16:34;33.57;;;17.63;;
239;SDS011;104;53.590;10.004;2024-01-07T03:19:02;31.27;;;15.83;;
239;SDS011;104;53.590;10.004;2024-01-07T03:21:29;29.07;;;15.80;;
239;SDS011;104;53.590;10.004;2024-01-07T03:23:57;30.83;;;15.87;;
239;SDS011;104;53.590;10.004;2024-01-07T03:26:24;32.03;;;15.50;;
239;SDS011;104;53.590;10.004;2024-01-07T03:28:51;26.87;;;14.90;;
239;SDS011;104;53.590;10.004;2024-01-07T03:31:18;30.93;;;14.83;;
239;SDS011;104;53.590;10.004;2024-01-07T03:33:49;26.20;;;14.67;;
239;SDS011;104;53.590;10.004;2024-01-07T03:36:16;30.30;;;15.10;;
239;SDS011;104;53.590;10.004;2024-01-07T03:38:44;27.87;;;15.57;;
239;SDS011;104;53.590;10.004;2024-01-07T03:41:15;33.43;;;14.73;;
239;SDS011;104;53.590;10.004;2024-01-07T03:43:43;32.40;;;16.10;;
239;SDS011;104;53.590;10.004;2024-01-07T03:46:10;29.43;;;15.00;;
239;SDS011;104;53.590;10.004;2024-01-07T03:48:37;31.20;;;14.97;;
239;SDS011;104;53.590;10.004;2024-01-07T03:51:06;30.13;;;15.20;;
239;SDS011;104;53.590;10.004;2024-01-07T03:53:33;32.63;;;15.77;;
239;SDS011;104;53.590;10.004;2024-01-07T03:56:00;29.77;;;16.00;;
239;SDS011;104;53.590;10.004;2024-01-07T03:58:28;29.77;;;14.77;;
239;SDS011;104;53.590;10.004;2024-01-07T04:00:55;31.13;;;15.70;;
239;SDS011;104;53.590;10.004;2024-01-07T04:03:22;24.57;;;13.27;;
239;SDS011;104;53.590;10.004;2024-01-07T04:05:49;26.07;;;14.13;;
239;SDS011;104;53.590;10.004;2024-01-07T04:08:18;27.73;;;12.23;;
239;SDS011;104;53.590;10.004;2024-01-07T04:10:45;27.93;;;13.63;;
239;SDS011;104;53.590;10.004;2024-01-07T04:13:12;31.17;;;13.47;;
239;SDS011;104;53.590;10.004;2024-01-07T04:15:39;25.00;;;12.37;;
239;SDS011;104;53.590;10.004;2024-01-07T04:18:06;20.83;;;12.13;;
239;SDS011;104;53.590;10.004;2024-01-07T04:20:34;24.40;;;12.80;;
239;SDS011;104;53.590;10.004;2024-01-07T04:23:01;24.27;;;12.33;;
239;SDS011;104;53.590;10.004;2024-01-07T04:25:30;24.90;;;12.27;;
239;SDS011;104;53.590;10.004;2024-01-07T04:27:57;26.23;;;12.30;;
239;SDS011;104;53.590;10.004;2024-01-07T04:30:24;21.00;;;11.40;;
239;SDS011;104;53.590;10.004;2024-01-07T04:32:52;21.67;;;11.17;;
239;SDS011;104;53.590;10.004;2024-01-07T04:35:19;19.67;;;10.13;;
239;SDS011;104;53.590;10.004;2024-01-07T04:37:46;22.17;;;10.87;;
239;SDS011;104;53.590;10.004;2024-01-07T04:40:13;21.33;;;10.73;;
239;SDS011;104;53.590;10.004;2024-01-07T04:42:42;21.50;;;10.33;;
239;SDS011;104;53.590;10.004;2024-01-07T04:45:10;22.60;;;11.17;;
239;SDS011;104;53.590;10.004;2024-01-07T04:47:37;19.53;;;9.50;;
239;SDS011;104;53.590;10.004;2024-01-07T04:50:04;19.93;;;11.47;;
239;SDS011;104;53.590;10.004;2024-01-07T04:52:32;24.33;;;10.33;;
239;SDS011;104;53.590;10.004;2024-01-07T05:31:40;22.23;;;10.57;;
239;SDS011;104;53.590;10.004;2024-01-07T05:34:13;21.67;;;10.13;;
239;SDS011;104;53.590;10.004;2024-01-07T05:37:03;21.63;;;11.27;;
239;SDS011;104;53.590;10.004;2024-01-07T05:39:31;20.80;;;11.57;;
239;SDS011;104;53.590;10.004;2024-01-07T05:41:58;20.93;;;11.50;;
239;SDS011;104;53.590;10.004;2024-01-07T05:44:25;21.57;;;11.90;;
239;SDS011;104;53.590;10.004;2024-01-07T05:57:37;22.27;;;11.20;;
239;SDS011;104;53.590;10.004;2024-01-07T06:00:04;20.83;;;11.00;;
239;SDS011;104;53.590;10.004;2024-01-07T06:02:34;28.43;;;11.87;;
239;SDS011;104;53.590;10.004;2024-01-07T06:05:01;23.83;;;11.60;;
239;SDS011;104;53.590;10.004;2024-01-07T06:07:29;22.80;;;11.60;;
239;SDS011;104;53.590;10.004;2024-01-07T06:09:56;24.97;;;12.10;;
239;SDS011;104;53.590;10.004;2024-01-07T06:12:23;22.70;;;11.60;;
239;SDS011;104;53.590;10.004;2024-01-07T06:14:52;24.20;;;12.40;;
239;SDS011;104;53.590;10.004;2024-01-07T06:17:19;25.17;;;12.53;;
239;SDS011;104;53.590;10.004;2024-01-07T06:19:46;28.57;;;12.23;;
239;SDS011;104;53.590;10.004;2024-01-07T06:22:13;24.17;;;12.60;;
239;SDS011;104;53.590;10.004;2024-01-07T06:24:41;24.93;;;11.90;;
239;SDS011;104;53.590;10.004;2024-01-07T06:27:08;22.00;;;11.57;;
239;SDS011;104;53.590;10.004;2024-01-07T06:29:35;21.17;;;12.10;;
239;SDS011;104;53.590;10.004;2024-01-07T06:32:04;19.30;;;10.77;;
239;SDS011;104;53.590;10.004;2024-01-07T06:34:31;26.40;;;12.50;;
239;SDS011;104;53.590;10.004;2024-01-07T06:36:58;23.20;;;11.93;;
239;SDS011;104;53.590;10.004;2024-01-07T06:39:26;24.87;;;12.77;;
239;SDS011;104;53.590;10.004;2024-01-07T06:41:53;21.73;;;11.57;;
239;SDS011;104;53.590;10.004;2024-01-07T06:44:20;22.07;;;10.77;;
239;SDS011;104;53.590;10.004;2024-01-07T06:46:48;23.57;;;11.90;;
239;SDS011;104;53.590;10.004;2024-01-07T06:49:15;23.20;;;12.27;;
239;SDS011;104;53.590;10.004;2024-01-07T06:51:43;20.10;;;11.33;;
239;SDS011;104;53.590;10.004;2024-01-07T06:54:10;23.20;;;11.60;;
239;SDS011;104;53.590;10.004;2024-01-07T06:56:37;24.60;;;12.00;;
239;SDS011;104;53.590;10.004;2024-01-07T06:59:04;20.57;;;10.83;;
239;SDS011;104;53.590;10.004;2024-01-07T07:01:32;24.03;;;11.90;;
239;SDS011;104;53.590;10.004;2024-01-07T07:04:00;19.30;;;10.40;;
239;SDS011;104;53.590;10.004;2024-01-07T07:06:28;24.47;;;11.30;;
239;SDS011;104;53.590;10.004;2024-01-07T07:08:56;22.27;;;10.97;;
239;SDS011;104;53.590;10.004;2024-01-07T07:11:23;21.07;;;11.87;;
239;SDS011;104;53.590;10.004;2024-01-07T07:13:50;22.53;;;11.33;;
239;SDS011;104;53.590;10.004;2024-01-07T07:16:17;22.97;;;11.53;;
239;SDS011;104;53.590;10.004;2024-01-07T07:18:45;26.50;;;11.53;;
239;SDS011;104;53.590;10.004;2024-01-07T07:21:12;22.90;;;11.73;;
239;SDS011;104;53.590;10.004;2024-01-07T07:23:41;28.20;;;12.40;;
239;SDS011;104;53.590;10.004;2024-01-07T07:26:08;25.07;;;11.60;;
239;SDS011;104;53.590;10.004;2024-01-07T07:28:35;29.70;;;12.90;;
239;SDS011;104;53.590;10.004;2024-01-07T07:31:03;21.90;;;11.10;;
239;SDS011;104;53.590;10.004;2024-01-07T07:33:30;22.23;;;11.40;;
239;SDS011;104;53.590;10.004;2024-01-07T07:35:57;22.00;;;11.93;;
239;SDS011;104;53.590;10.004;2024-01-07T07:38:25;21.93;;;11.73;;
239;SDS011;104;53.590;10.004;2024-01-07T07:40:54;24.43;;;12.50;;
239;SDS011;104;53.590;10.004;2024-01-07T07:43:21;25.97;;;12.43;;
239;SDS011;104;53.590;10.004;2024-01-07T07:45:50;25.47;;;12.07;;
239;SDS011;104;53.590;10.004;2024-01-07T07:48:17;24.57;;;12.60;;
239;SDS011;104;53.590;10.004;2024-01-07T07:50:44;22.03;;;11.87;;
239;SDS011;104;53.590;10.004;2024-01-07T07:53:12;26.60;;;11.70;;
239;SDS011;104;53.590;10.004;2024-01-07T07:55:39;25.40;;;11.67;;
239;SDS011;104;53.590;10.004;2024-01-07T07:58:08;20.93;;;10.73;;
239;SDS011;104;53.590;10.004;2024-01-07T08:00:35;26.93;;;12.43;;
239;SDS011;104;53.590;10.004;2024-01-07T08:03:03;24.33;;;12.67;;
239;SDS011;104;53.590;10.004;2024-01-07T08:05:31;22.07;;;10.77;;
239;SDS011;104;53.590;10.004;2024-01-07T08:07:58;23.63;;;11.50;;
239;SDS011;104;53.590;10.004;2024-01-07T08:10:26;21.40;;;11.13;;
239;SDS011;104;53.590;10.004;2024-01-07T08:12:53;20.90;;;11.17;;
239;SDS011;104;53.590;10.004;2024-01-07T08:15:22;21.80;;;10.80;;
239;SDS011;104;53.590;10.004;2024-01-07T08:17:51;22.10;;;10.90;;
239;SDS011;104;53.590;10.004;2024-01-07T08:20:18;20.90;;;10.40;;
239;SDS011;104;53.590;10.004;2024-01-07T08:22:48;21.33;;;11.10;;
239;SDS011;104;53.590;10.004;2024-01-07T08:25:16;21.23;;;10.50;;
239;SDS011;104;53.590;10.004;2024-01-07T08:27:43;21.53;;;9.87;;
239;SDS011;104;53.590;10.004;2024-01-07T08:30:11;23.70;;;11.40;;
239;SDS011;104;53.590;10.004;2024-01-07T08:32:40;32.17;;;15.53;;
239;SDS011;104;53.590;10.004;2024-01-07T08:35:10;32.63;;;14.17;;
239;SDS011;104;53.590;10.004;2024-01-07T09:51:00;30.90;;;13.80;;
239;SDS011;104;53.590;10.004;2024-01-07T09:53:29;30.70;;;14.00;;
239;SDS011;104;53.590;10.004;2024-01-07T09:56:00;35.67;;;15.67;;
239;SDS011;104;53.590;10.004;2024-01-07T09:58:29;37.03;;;15.50;;
239;SDS011;104;53.590;10.004;2024-01-07T10:00:56;28.80;;;13.37;;
239;SDS011;104;53.590;10.004;2024-01-07T10:03:24;36.50;;;14.83;;
239;SDS011;104;53.590;10.004;2024-01-07T10:05:52;28.00;;;11.67;;
239;SDS011;104;53.590;10.004;2024-01-07T10:08:20;40.57;;;15.17;;
239;SDS011;104;53.590;10.004;2024-01-07T10:10:48;35.97;;;15.77;;
239;SDS011;104;53.590;10.004;2024-01-07T10:13:15;33.23;;;15.90;;
239;SDS011;104;53.590;10.004;2024-01-07T10:15:42;31.20;;;14.77;;
239;SDS011;104;53.590;10.004;2024-01-07T10:18:10;32.13;;;13.30;;
239;SDS011;104;53.590;10.004;2024-01-07T10:20:38;34.27;;;15.30;;
239;SDS011;104;53.590;10.004;2024-01-07T10:23:05;32.70;;;15.40;;
239;SDS011;104;53.590;10.004;2024-01-07T10:25:35;29.53;;;14.40;;
239;SDS011;104;53.590;10.004;2024-01-07T10:28:03;30.23;;;13.33;;
239;SDS011;104;53.590;10.004;2024-01-07T10:30:30;30.60;;;11.83;;
239;SDS011;104;53.590;10.004;2024-01-07T10:32:58;31.17;;;13.97;;
239;SDS011;104;53.590;10.004;2024-01-07T10:35:27;32.47;;;14.93;;
239;SDS011;104;53.590;10.004;2024-01-07T10:37:55;24.47;;;12.57;;
239;SDS011;104;53.590;10.004;2024-01-07T10:40:23;34.00;;;14.33;;
239;SDS011;104;53.590;10.004;2024-01-07T10:42:51;33.23;;;15.10;;
239;SDS011;104;53.590;10.004;2024-01-07T10:45:19;37.00;;;16.00;;
239;SDS011;104;53.590;10.004;2024-01-07T10:47:48;35.67;;;15.40;;
239;SDS011;104;53.590;10.004;2024-01-07T10:50:16;27.97;;;13.50;;
239;SDS011;104;53.590;10.004;2024-01-07T10:52:47;33.23;;;14.13;;
239;SDS011;104;53.590;10.004;2024-01-07T10:55:16;29.00;;;14.90;;
239;SDS011;104;53.590;10.004;2024-01-07T10:57:44;29.97;;;14.10;;
239;SDS011;104;53.590;10.004;2024-01-07T11:00:14;34.27;;;16.17;;
239;SDS011;104;53.590;10.004;2024-01-07T11:02:47;35.17;;;15.93;;
239;SDS011;104;53.590;10.004;2024-01-07T11:05:17;35.43;;;15.87;;
239;SDS011;104;53.590;10.004;2024-01-07T11:07:53;34.73;;;14.67;;
239;SDS011;104;53.590;10.004;2024-01-07T11:10:25;39.63;;;18.90;;
239;SDS011;104;53.590;10.004;2024-01-07T11:12:55;28.50;;;14.37;;
239;SDS011;104;53.590;10.004;2024-01-07T11:18:10;39.63;;;16.50;;
239;SDS011;104;53.590;10.004;2024-01-07T11:20:45;32.20;;;14.10;;
239;SDS011;104;53.590;10.004;2024-01-07T11:23:28;36.03;;;16.33;;
239;SDS011;104;53.590;10.004;2024-01-07T11:25:56;39.83;;;17.57;;
239;SDS011;104;53.590;10.004;2024-01-07T11:28:42;35.07;;;16.80;;
239;SDS011;104;53.590;10.004;2024-01-07T11:31:10;40.23;;;16.17;;
239;SDS011;104;53.590;10.004;2024-01-07T11:33:38;33.73;;;14.80;;
239;SDS011;104;53.590;10.004;2024-01-07T11:36:06;40.70;;;16.50;;
239;SDS011;104;53.590;10.004;2024-01-07T11:38:33;39.97;;;18.27;;
239;SDS011;104;53.590;10.004;2024-01-07T11:41:02;42.13;;;17.63;;
239;SDS011;104;53.590;10.004;2024-01-07T11:43:30;39.23;;;17.03;;
239;SDS011;104;53.590;10.004;2024-01-07T11:45:58;37.27;;;17.03;;
239;SDS011;104;53.590;10.004;2024-01-07T11:48:26;37.30;;;17.30;;
239;SDS011;104;53.590;10.004;2024-01-07T11:50:54;37.27;;;17.13;;
239;SDS011;104;53.590;10.004;2024-01-07T11:53:22;32.17;;;15.97;;
239;SDS011;104;53.590;10.004;2024-01-07T11:55:49;40.43;;;17.37;;
239;SDS011;104;53.590;10.004;2024-01-07T11:58:16;43.07;;;17.43;;
239;SDS011;104;53.590;10.004;2024-01-07T12:00:43;39.70;;;17.63;;
239;SDS011;104;53.590;10.004;2024-01-07T12:03:10;37.97;;;17.17;;
239;SDS011;104;53.590;10.004;2024-01-07T12:05:38;38.57;;;17.60;;
239;SDS011;104;53.590;10.004;2024-01-07T12:08:07;39.90;;;18.13;;
239;SDS011;104;53.590;10.004;2024-01-07T12:10:34;36.03;;;15.57;;
239;SDS011;104;53.590;10.004;2024-01-07T12:13:01;30.97;;;15.10;;
239;SDS011;104;53.590;10.004;2024-01-07T12:15:29;32.80;;;15.57;;
239;SDS011;104;53.590;10.004;2024-01-07T12:17:58;35.73;;;16.90;;
239;SDS011;104;53.590;10.004;2024-01-07T12:20:26;39.37;;;17.00;;
239;SDS011;104;53.590;10.004;2024-01-07T12:22:55;36.00;;;17.03;;
239;SDS011;104;53.590;10.004;2024-01-07T12:25:25;35.70;;;16.03;;
239;SDS011;104;53.590;10.004;2024-01-07T12:27:52;48.67;;;17.20;;
239;SDS011;104;53.590;10.004;2024-01-07T12:30:20;37.30;;;16.20;;
239;SDS011;104;53.590;10.004;2024-01-07T12:32:47;35.73;;;17.67;;
239;SDS011;104;53.590;10.004;2024-01-07T12:35:15;34.50;;;15.90;;
239;SDS011;104;53.590;10.004;2024-01-07T12:37:43;36.10;;;15.67;;
239;SDS011;104;53.590;10.004;2024-01-07T12:40:11;37.00;;;16.83;;
239;SDS011;104;53.590;10.004;2024-01-07T12:42:40;32.87;;;15.53;;
239;SDS011;104;53.590;10.004;2024-01-07T12:45:10;39.00;;;17.90;;
239;SDS011;104;53.590;10.004;2024-01-07T12:47:38;31.90;;;15.27;;
239;SDS011;104;53.590;10.004;2024-01-07T12:50:06;32.97;;;15.00;;
239;SDS011;104;53.590;10.004;2024-01-07T12:52:35;34.60;;;16.10;;
239;SDS011;104;53.590;10.004;2024-01-07T12:55:02;33.73;;;15.77;;
239;SDS011;104;53.590;10.004;2024-01-07T12:57:30;36.00;;;16.67;;
239;SDS011;104;53.590;10.004;2024-01-07T12:59:58;30.53;;;14.67;;
239;SDS011;104;53.590;10.004;2024-01-07T13:02:26;40.37;;;16.37;;
239;SDS011;104;53.590;10.004;2024-01-07T13:04:53;38.10;;;16.70;;
239;SDS011;104;53.590;10.004;2024-01-07T13:07:20;33.90;;;15.50;;
239;SDS011;104;53.590;10.004;2024-01-07T13:09:48;30.30;;;14.57;;
239;SDS011;104;53.590;10.004;2024-01-07T13:12:16;41.30;;;17.50;;
239;SDS011;104;53.590;10.004;2024-01-07T13:14:43;32.83;;;15.50;;
239;SDS011;104;53.590;10.004;2024-01-07T13:17:13;35.80;;;15.83;;
239;SDS011;104;53.590;10.004;2024-01-07T13:19:40;32.13;;;15.57;;
239;SDS011;104;53.590;10.004;2024-01-07T13:22:08;39.60;;;18.30;;
239;SDS011;104;53.590;10.004;2024-01-07T13:24:35;40.30;;;16.83;;
239;SDS011;104;53.590;10.004;2024-01-07T13:27:03;30.83;;;14.60;;
239;SDS011;104;53.590;10.004;2024-01-07T15:05:57;47.40;;;18.83;;
239;SDS011;104;53.590;10.004;2024-01-07T15:08:25;31.27;;;12.77;;
239;SDS011;104;53.590;10.004;2024-01-07T15:49:50;38.27;;;14.97;;
239;SDS011;104;53.590;10.004;2024-01-07T15:52:18;35.17;;;15.73;;
239;SDS011;104;53.590;10.004;2024-01-07T15:54:45;45.40;;;16.77;;
239;SDS011;104;53.590;10.004;2024-01-07T15:57:12;36.00;;;15.23;;
239;SDS011;104;53.590;10.004;2024-01-07T15:59:40;38.90;;;14.63;;
239;SDS011;104;53.590;10.004;2024-01-07T16:02:07;33.27;;;14.53;;
239;SDS011;104;53.590;10.004;2024-01-07T16:04:34;37.87;;;16.07;;
239;SDS011;104;53.590;10.004;2024-01-07T16:07:07;32.77;;;13.43;;
239;SDS011;104;53.590;10.004;2024-01-07T16:09:35;42.50;;;16.20;;
239;SDS011;104;53.590;10.004;2024-01-07T16:12:03;36.90;;;15.57;;
239;SDS011;104;53.590;10.004;2024-01-07T16:14:30;27.57;;;13.20;;
239;SDS011;104;53.590;10.004;2024-01-07T16:17:00;36.50;;;14.73;;
239;SDS011;104;53.590;10.004;2024-01-07T16:19:28;28.53;;;13.10;;
239;SDS011;104;53.590;10.004;2024-01-07T16:22:00;35.10;;;13.70;;
239;SDS011;104;53.590;10.004;2024-01-07T16:24:34;38.63;;;15.93;;
239;SDS011;104;53.590;10.004;2024-01-07T16:27:05;35.17;;;15.20;;
239;SDS011;104;53.590;10.004;2024-01-07T16:29:33;30.83;;;13.77;;
239;SDS011;104;53.590;10.004;2024-01-07T16:32:00;34.43;;;13.83;;
239;SDS011;104;53.590;10.004;2024-01-07T16:34:28;32.10;;;13.97;;
239;SDS011;104;53.590;10.004;2024-01-07T16:36:55;31.90;;;12.67;;
239;SDS011;104;53.590;10.004;2024-01-07T16:39:22;29.77;;;12.87;;
239;SDS011;104;53.590;10.004;2024-01-07T16:41:52;31.90;;;12.70;;
239;SDS011;104;53.590;10.004;2024-01-07T16:44:22;25.67;;;10.90;;
239;SDS011;104;53.590;10.004;2024-01-07T16:46:49;36.53;;;13.97;;
239;SDS011;104;53.590;10.004;2024-01-07T16:49:17;28.73;;;12.27;;
239;SDS011;104;53.590;10.004;2024-01-07T16:51:44;25.30;;;10.77;;
239;SDS011;104;53.590;10.004;2024-01-07T16:54:11;22.50;;;10.50;;
239;SDS011;104;53.590;10.004;2024-01-07T16:56:38;27.40;;;12.10;;
239;SDS011;104;53.590;10.004;2024-01-07T16:59:07;21.63;;;10.10;;
239;SDS011;104;53.590;10.004;2024-01-07T17:01:35;24.23;;;10.00;;
239;SDS011;104;53.590;10.004;2024-01-07T17:04:02;22.27;;;11.03;;
239;SDS011;104;53.590;10.004;2024-01-07T17:06:29;28.73;;;11.90;;
239;SDS011;104;53.590;10.004;2024-01-07T17:08:57;27.70;;;11.77;;
239;SDS011;104;53.590;10.004;2024-01-07T17:11:24;33.23;;;12.70;;
239;SDS011;104;53.590;10.004;2024-01-07T17:13:52;22.20;;;10.67;;
239;SDS011;104;53.590;10.004;2024-01-07T17:16:21;30.40;;;11.80;;
239;SDS011;104;53.590;10.004;2024-01-07T17:18:53;27.83;;;11.27;;
239;SDS011;104;53.590;10.004;2024-01-07T17:21:20;24.63;;;11.60;;
239;SDS011;104;53.590;10.004;2024-01-07T17:23:47;30.33;;;12.80;;
239;SDS011;104;53.590;10.004;2024-01-07T17:26:16;25.93;;;12.30;;
239;SDS011;104;53.590;10.004;2024-01-07T17:28:44;25.80;;;12.30;;
239;SDS011;104;53.590;10.004;2024-01-07T17:31:11;23.90;;;12.50;;
239;SDS011;104;53.590;10.004;2024-01-07T17:33:40;21.63;;;10.33;;
239;SDS011;104;53.590;10.004;2024-01-07T17:49:08;25.33;;;12.87;;
239;SDS011;104;53.590;10.004;2024-01-07T17:51:41;27.90;;;13.27;;
239;SDS011;104;53.590;10.004;2024-01-07T17:57:56;32.80;;;13.30;;
239;SDS011;104;53.590;10.004;2024-01-07T18:00:23;32.43;;;13.00;;
239;SDS011;104;53.590;10.004;2024-01-07T18:02:50;28.33;;;12.73;;
239;SDS011;104;53.590;10.004;2024-01-07T18:05:20;26.17;;;12.70;;
239;SDS011;104;53.590;10.004;2024-01-07T18:07:47;27.07;;;12.80;;
239;SDS011;104;53.590;10.004;2024-01-07T18:10:15;25.63;;;12.90;;
239;SDS011;104;53.590;10.004;2024-01-07T18:12:42;25.80;;;13.30;;
239;SDS011;104;53.590;10.004;2024-01-07T18:15:09;22.90;;;12.40;;
239;SDS011;104;53.590;10.004;2024-01-07T18:17:37;29.70;;;13.37;;
239;SDS011;104;53.590;10.004;2024-01-07T18:20:08;21.87;;;11.33;;
239;SDS011;104;53.590;10.004;2024-01-07T18:22:37;25.10;;;12.63;;
239;SDS011;104;53.590;10.004;2024-01-07T18:25:05;23.03;;;11.87;;
239;SDS011;104;53.590;10.004;2024-01-07T18:27:33;24.10;;;11.63;;
239;SDS011;104;53.590;10.004;2024-01-07T18:30:01;29.20;;;12.40;;
239;SDS011;104;53.590;10.004;2024-01-07T18:32:29;25.00;;;12.70;;
239;SDS011;104;53.590;10.004;2024-01-07T18:34:57;21.53;;;11.17;;
239;SDS011;104;53.590;10.004;2024-01-07T18:37:28;29.60;;;11.67;;
239;SDS011;104;53.590;10.004;2024-01-07T18:39:57;23.83;;;11.97;;
239;SDS011;104;53.590;10.004;2024-01-07T18:42:27;27.20;;;12.40;;
239;SDS011;104;53.590;10.004;2024-01-07T18:45:04;23.30;;;11.50;;
239;SDS011;104;53.590;10.004;2024-01-07T18:47:33;20.20;;;10.47;;
239;SDS011;104;53.590;10.004;2024-01-07T18:50:05;26.37;;;11.40;;
239;SDS011;104;53.590;10.004;2024-01-07T18:52:33;21.00;;;9.77;;
239;SDS011;104;53.590;10.004;2024-01-07T18:55:02;22.80;;;10.60;;
239;SDS011;104;53.590;10.004;2024-01-07T18:57:32;24.77;;;11.73;;
239;SDS011;104;53.590;10.004;2024-01-07T19:00:00;23.00;;;10.47;;
239;SDS011;104;53.590;10.004;2024-01-07T19:02:31;17.20;;;8.17;;
239;SDS011;104;53.590;10.004;2024-01-07T19:04:58;21.20;;;10.67;;
239;SDS011;104;53.590;10.004;2024-01-07T19:07:30;22.30;;;9.70;;
239;SDS011;104;53.590;10.004;2024-01-07T19:09:58;20.13;;;9.47;;
239;SDS011;104;53.590;10.004;2024-01-07T19:12:30;22.00;;;9.83;;
239;SDS011;104;53.590;10.004;2024-01-07T19:14:58;20.60;;;8.97;;
239;SDS011;104;53.590;10.004;2024-01-07T19:17:25;21.00;;;9.70;;
239;SDS011;104;53.590;10.004;2024-01-07T19:19:52;16.80;;;9.00;;
239;SDS011;104;53.590;10.004;2024-01-07T19:22:20;19.13;;;9.10;;
239;SDS011;104;53.590;10.004;2024-01-07T19:24:47;18.03;;;9.10;;
239;SDS011;104;53.590;10.004;2024-01-07T19:27:15;17.40;;;8.40;;
239;SDS011;104;53.590;10.004;2024-01-07T19:29:43;18.20;;;8.00;;
239;SDS011;104;53.590;10.004;2024-01-07T21:57:37;17.10;;;6.27;;
239;SDS011;104;53.590;10.004;2024-01-07T22:00:05;11.47;;;5.30;;
239;SDS011;104;53.590;10.004;2024-01-07T22:02:34;13.30;;;5.77;;
239;SDS011;104;53.590;10.004;2024-01-07T22:05:01;20.93;;;7.00;;
239;SDS011;104;53.590;10.004;2024-01-07T22:07:28;9.67;;;5.30;;
239;SDS011;104;53.590;10.004;2024-01-07T22:09:55;14.03;;;6.47;;